Time;durP1;ratioP1;P1;durP2;ratioP2;P2;SDS_P1;SDS_P2;PMS_P1;PMS_P2;Temp;Humidity;BMP_temperature;BMP_pressure;BME280_temperature;BME280_humidity;BME280_pressure;Samples;Min_cycle;Max_cycle;Signal;HPM_P1;HPM_P2
2021/10/28 00:14:52;;;;;;;1.02;1.02;;;;;;;;;;7331362;19;161835;-16
2021/10/28 00:17:39;;;;;;;1.40;0.93;;;;;;;;;;7332363;19;162335;-13
2021/10/28 00:20:12;;;;;;;0.90;0.90;;;;;;;;;;7335783;19;154244;-17
2021/10/28 00:22:44;;;;;;;0.90;0.88;;;;;;;;;;7332164;19;153577;-19
2021/10/28 00:25:15;;;;;;;1.00;0.90;;;;;;;;;;7331738;19;161891;-17
2021/10/28 00:27:51;;;;;;;0.90;0.90;;;;;;;;;;7331802;19;162365;-18
2021/10/28 00:30:22;;;;;;;1.10;1.10;;;;;;;;;;7332998;19;154322;-18
2021/10/28 00:32:54;;;;;;;1.48;0.93;;;;;;;;;;7335823;19;153470;-19
2021/10/28 00:35:25;;;;;;;1.00;0.90;;;;;;;;;;7332592;19;161834;-16
2021/10/28 00:37:57;;;;;;;0.80;0.80;;;;;;;;;;7334036;19;162448;-19
2021/10/28 00:40:31;;;;;;;0.85;0.85;;;;;;;;;;7334839;19;154341;-19
2021/10/28 00:43:05;;;;;;;1.60;1.00;;;;;;;;;;7332359;19;153621;-16
2021/10/28 00:45:40;;;;;;;1.00;1.00;;;;;;;;;;7331850;19;161774;-16
2021/10/28 00:48:12;;;;;;;0.90;0.90;;;;;;;;;;7331832;19;162560;-17
2021/10/28 00:50:43;;;;;;;1.00;1.00;;;;;;;;;;7330601;19;154133;-18
2021/10/28 00:53:16;;;;;;;1.30;0.90;;;;;;;;;;7332017;19;153669;-18
2021/10/28 00:55:48;;;;;;;0.63;0.60;;;;;;;;;;7330427;19;161513;-16
2021/10/28 00:58:23;;;;;;;1.13;0.60;;;;;;;;;;7331726;19;163142;-19
2021/10/28 01:00:54;;;;;;;1.50;0.80;;;;;;;;;;7331933;19;154000;-17
2021/10/28 01:03:26;;;;;;;1.13;0.73;;;;;;;;;;7332047;19;153599;-15
2021/10/28 01:05:57;;;;;;;0.82;0.73;;;;;;;;;;7331441;19;162085;-15
2021/10/28 09:59:24;;;;;;;0.50;0.50;;;;;;;;;;7345029;19;161840;-13
2021/10/28 10:02:09;;;;;;;0.57;0.57;;;;;;;;;;7366084;19;162334;-12
2021/10/28 10:04:43;;;;;;;0.50;0.50;;;;;;;;;;7364239;19;153910;-12
2021/10/28 10:07:16;;;;;;;1.75;0.60;;;;;;;;;;7363648;19;153523;-12
2021/10/28 10:09:51;;;;;;;0.60;0.60;;;;;;;;;;7361815;19;161716;-16
2021/10/28 10:12:23;;;;;;;0.63;0.63;;;;;;;;;;7365766;19;162338;-13
2021/10/28 10:14:54;;;;;;;0.98;0.55;;;;;;;;;;7364010;19;153921;-14
2021/10/28 10:17:26;;;;;;;1.00;0.80;;;;;;;;;;7363606;19;153576;-16
2021/10/28 10:19:59;;;;;;;1.80;0.60;;;;;;;;;;7361854;19;162139;-15
2021/10/28 10:22:44;;;;;;;0.70;0.70;;;;;;;;;;7362800;19;162725;-16
2021/10/28 10:25:29;;;;;;;;;;;;;;;;;;7367776;19;154029;-16
2021/10/28 11:33:35;;;;;;;0.80;0.80;;;;;;;;;;7329017;19;162898;-15
2021/10/28 12:19:50;;;;;;;2.08;1.50;;;;;;;;;;7331378;19;162447;-16
2021/10/28 12:23:46;;;;;;;8.13;4.18;;;;;;;;;;7332700;19;153788;-16
2021/10/28 12:46:16;;;;;;;4.15;2.45;;;;;;;;;;7334582;19;153517;-16
2021/10/28 12:52:00;;;;;;;2.67;2.10;;;;;;;;;;7330245;19;162497;-15
2021/10/28 12:54:55;;;;;;;2.47;1.98;;;;;;;;;;7334191;19;154039;-13
2021/10/28 13:50:30;;;;;;;2.10;1.90;;;;;;;;;;7332464;19;154311;-15
2021/10/28 13:56:17;;;;;;;1.60;1.50;;;;;;;;;;7331710;19;161885;-13
2021/10/28 14:21:18;;;;;;;2.38;2.00;;;;;;;;;;7331023;19;162529;-15
2021/10/28 14:32:55;;;;;;;2.20;1.90;;;;;;;;;;7335074;19;162342;-13
2021/10/28 14:38:26;;;;;;;2.40;1.92;;;;;;;;;;7337483;19;153673;-17
2021/10/28 15:03:03;;;;;;;2.00;1.80;;;;;;;;;;7334824;19;163602;-15
2021/10/28 15:30:16;;;;;;;1.75;1.48;;;;;;;;;;7335395;19;154211;-15
2021/10/28 15:35:35;;;;;;;1.65;1.45;;;;;;;;;;7332975;19;162188;-14
2021/10/28 15:38:21;;;;;;;1.50;1.40;;;;;;;;;;7332973;19;162424;-16
2021/10/28 15:41:24;;;;;;;1.13;1.02;;;;;;;;;;7332825;19;154139;-14
2021/10/28 16:00:45;;;;;;;1.40;1.30;;;;;;;;;;7329842;19;162733;-17
2021/10/28 16:22:28;;;;;;;1.52;1.42;;;;;;;;;;7334384;19;162378;-15
2021/10/28 16:24:59;;;;;;;1.13;1.02;;;;;;;;;;7333957;19;154247;-13
2021/10/28 16:27:30;;;;;;;1.83;1.10;;;;;;;;;;7332685;19;153703;-15
2021/10/28 16:30:02;;;;;;;1.13;1.10;;;;;;;;;;7334156;19;161951;-16
2021/10/28 16:32:37;;;;;;;1.40;1.30;;;;;;;;;;7334115;19;162364;-17
2021/10/28 16:35:09;;;;;;;1.20;1.20;;;;;;;;;;7334458;19;153965;-15
2021/10/28 16:37:40;;;;;;;1.50;1.40;;;;;;;;;;7334367;19;153527;-15
2021/10/28 16:40:13;;;;;;;1.25;1.20;;;;;;;;;;7334357;19;162218;-17
2021/10/28 16:42:44;;;;;;;1.13;1.02;;;;;;;;;;7334553;19;162368;-15
2021/10/28 16:45:16;;;;;;;1.17;1.10;;;;;;;;;;7333057;19;154900;-16
2021/10/28 16:47:50;;;;;;;1.30;1.30;;;;;;;;;;7334227;19;153636;-14
2021/10/28 16:50:21;;;;;;;1.42;1.38;;;;;;;;;;7332921;19;161900;-12
2021/10/28 16:52:54;;;;;;;1.15;1.08;;;;;;;;;;7325130;19;162632;-14
2021/10/28 16:55:26;;;;;;;1.25;1.17;;;;;;;;;;7327831;19;154100;-15
2021/10/28 16:57:57;;;;;;;1.40;1.30;;;;;;;;;;7331122;19;153520;-15
2021/10/28 17:00:31;;;;;;;1.10;1.10;;;;;;;;;;7330568;19;161798;-14
2021/10/28 17:03:07;;;;;;;1.35;1.25;;;;;;;;;;7330557;19;162620;-18
2021/10/28 17:05:38;;;;;;;1.45;1.30;;;;;;;;;;7328799;19;153948;-14
2021/10/28 17:08:09;;;;;;;1.08;1.08;;;;;;;;;;7330396;19;154215;-16
2021/10/28 17:10:41;;;;;;;1.05;1.02;;;;;;;;;;7329227;19;161839;-13
2021/10/28 17:13:16;;;;;;;1.30;1.20;;;;;;;;;;7330411;19;162554;-13
2021/10/28 17:15:47;;;;;;;2.33;1.27;;;;;;;;;;7330867;19;154177;-16
2021/10/28 17:18:21;;;;;;;1.30;1.20;;;;;;;;;;7330409;19;153730;-14
2021/10/28 17:20:55;;;;;;;1.20;1.20;;;;;;;;;;7330099;19;161733;-16
2021/10/28 17:23:31;;;;;;;1.10;1.10;;;;;;;;;;7329994;19;163336;-14
2021/10/28 17:26:03;;;;;;;1.25;1.15;;;;;;;;;;7326990;19;154175;-17
2021/10/28 17:28:36;;;;;;;0.97;0.97;;;;;;;;;;7330369;19;153654;-14
2021/10/28 17:31:08;;;;;;;0.95;0.95;;;;;;;;;;7328300;19;161769;-15
2021/10/28 17:33:42;;;;;;;1.10;1.10;;;;;;;;;;7329844;19;162493;-15
2021/10/28 17:36:14;;;;;;;1.15;1.15;;;;;;;;;;7330070;19;154028;-17
2021/10/28 17:38:45;;;;;;;1.00;1.00;;;;;;;;;;7329844;19;153732;-13
2021/10/28 17:41:16;;;;;;;1.10;1.10;;;;;;;;;;7328140;19;161809;-16
2021/10/28 17:43:51;;;;;;;1.00;1.00;;;;;;;;;;7328023;19;162698;-15
2021/10/28 17:46:24;;;;;;;1.10;1.10;;;;;;;;;;7327538;19;153986;-12
2021/10/28 17:48:58;;;;;;;0.98;0.98;;;;;;;;;;7329497;19;153748;-17
2021/10/28 17:51:30;;;;;;;1.40;1.30;;;;;;;;;;7328590;19;161943;-15
2021/10/28 17:54:02;;;;;;;1.45;1.35;;;;;;;;;;7329132;19;162458;-15
2021/10/28 17:56:34;;;;;;;1.27;1.15;;;;;;;;;;7328762;19;154091;-14
2021/10/28 17:59:06;;;;;;;1.10;1.10;;;;;;;;;;7331138;19;153347;-15
2021/10/28 18:01:39;;;;;;;1.10;1.10;;;;;;;;;;7328975;19;161956;-17
2021/10/28 18:04:13;;;;;;;1.15;1.15;;;;;;;;;;7332367;19;162485;-16
2021/10/28 18:06:45;;;;;;;1.30;1.20;;;;;;;;;;7333905;19;154241;-15
2021/10/28 18:09:16;;;;;;;1.02;1.02;;;;;;;;;;7334176;19;153522;-15
2021/10/28 18:11:48;;;;;;;1.00;1.00;;;;;;;;;;7335144;19;162231;-17
2021/10/28 18:14:20;;;;;;;1.00;1.00;;;;;;;;;;7335250;19;162405;-14
2021/10/28 18:16:53;;;;;;;1.30;1.20;;;;;;;;;;7333932;19;154004;-15
2021/10/28 18:19:27;;;;;;;1.00;1.00;;;;;;;;;;7335633;19;153551;-14
2021/10/28 18:21:58;;;;;;;0.98;0.98;;;;;;;;;;7334091;19;161870;-13
2021/10/28 18:24:30;;;;;;;1.00;1.00;;;;;;;;;;7334805;19;162654;-15
2021/10/28 18:27:02;;;;;;;1.08;1.08;;;;;;;;;;7333620;19;153955;-14
2021/10/28 18:29:33;;;;;;;1.13;1.13;;;;;;;;;;7335472;19;153527;-17
2021/10/28 18:32:06;;;;;;;1.00;1.00;;;;;;;;;;7335008;19;162100;-15
2021/10/28 18:34:43;;;;;;;1.10;1.10;;;;;;;;;;7334730;19;162551;-14
2021/10/28 18:37:14;;;;;;;0.98;0.98;;;;;;;;;;7335304;19;154007;-18
2021/10/28 18:39:46;;;;;;;0.90;0.90;;;;;;;;;;7334648;19;153500;-26
2021/10/28 18:42:17;;;;;;;1.15;1.10;;;;;;;;;;7333194;19;162041;-14
2021/10/28 18:44:50;;;;;;;1.20;1.20;;;;;;;;;;7334728;19;162551;-16
2021/10/28 18:47:21;;;;;;;1.10;1.10;;;;;;;;;;7333037;19;153964;-15
2021/10/28 18:49:55;;;;;;;0.73;0.73;;;;;;;;;;7334876;19;153508;-14
2021/10/28 18:52:29;;;;;;;1.10;1.10;;;;;;;;;;7332889;19;162131;-16
2021/10/28 18:55:01;;;;;;;0.95;0.95;;;;;;;;;;7334228;19;162417;-16
2021/10/28 18:57:33;;;;;;;0.80;0.80;;;;;;;;;;7334763;19;154194;-15
2021/10/28 19:00:07;;;;;;;1.00;1.00;;;;;;;;;;7334383;19;153648;-15
2021/10/28 19:02:37;;;;;;;;;;;;;;;;;;7332939;19;161824;-16
2021/10/28 19:05:12;;;;;;;1.00;1.00;;;;;;;;;;7334128;19;162829;-16
2021/10/28 19:07:46;;;;;;;1.05;1.05;;;;;;;;;;7332303;19;153983;-15
2021/10/28 19:10:18;;;;;;;0.90;0.90;;;;;;;;;;7334230;19;153906;-14
2021/10/28 19:12:51;;;;;;;0.95;0.95;;;;;;;;;;7333286;19;162328;-17
2021/10/28 19:15:23;;;;;;;1.00;1.00;;;;;;;;;;7332661;19;162313;-15
2021/10/28 19:17:56;;;;;;;2.83;1.20;;;;;;;;;;7332455;19;154661;-17
2021/10/28 19:20:29;;;;;;;;;;;;;;;;;;7336437;19;153900;-14
2021/10/28 19:23:00;;;;;;;1.35;1.27;;;;;;;;;;7333375;19;162156;-14
2021/10/28 19:25:32;;;;;;;1.50;1.40;;;;;;;;;;7332930;19;162356;-15
2021/10/28 19:28:03;;;;;;;1.20;1.20;;;;;;;;;;7331097;19;154649;-15
2021/10/28 19:30:37;;;;;;;6.18;3.45;;;;;;;;;;7334170;19;153499;-16
2021/10/28 19:33:12;;;;;;;6.05;4.45;;;;;;;;;;7335782;19;162126;-15
2021/10/28 19:35:52;;;;;;;2.90;2.42;;;;;;;;;;7331907;19;162422;-15
2021/10/28 19:38:39;;;;;;;4.47;2.55;;;;;;;;;;7335085;19;153945;-14
2021/10/28 19:41:33;;;;;;;2.97;2.35;;;;;;;;;;7333053;19;153764;-17
2021/10/28 19:46:48;;;;;;;10.38;6.72;;;;;;;;;;7331910;19;162579;-16
2021/10/28 19:49:20;;;;;;;10.13;7.22;;;;;;;;;;7333119;19;154197;-17
2021/10/28 19:51:54;;;;;;;9.15;7.18;;;;;;;;;;7333681;19;153612;-15
2021/10/28 19:54:26;;;;;;;11.70;8.13;;;;;;;;;;7334127;19;162041;-16
2021/10/28 19:56:57;;;;;;;8.68;6.78;;;;;;;;;;7331562;19;163098;-18
2021/10/28 19:59:33;;;;;;;6.53;5.93;;;;;;;;;;7334188;19;154078;-15
2021/10/28 20:02:06;;;;;;;9.38;6.85;;;;;;;;;;7332973;19;153485;-13
2021/10/28 20:04:52;;;;;;;7.90;5.95;;;;;;;;;;7331799;19;161892;-14
2021/10/28 20:07:29;;;;;;;8.57;6.25;;;;;;;;;;7329640;19;162413;-15
2021/10/28 20:21:22;;;;;;;8.18;6.05;;;;;;;;;;7328041;19;154165;-16
2021/10/28 20:23:57;;;;;;;7.78;6.30;;;;;;;;;;7329463;19;153514;-17
2021/10/28 20:26:28;;;;;;;6.78;5.03;;;;;;;;;;7329486;19;161875;-15
2021/10/28 20:29:02;;;;;;;6.82;5.22;;;;;;;;;;7330828;19;162699;-18
2021/10/28 20:31:33;;;;;;;6.63;5.32;;;;;;;;;;7331174;19;154144;-15
2021/10/28 20:34:13;;;;;;;5.88;5.25;;;;;;;;;;7331140;19;153837;-16
2021/10/28 20:39:30;;;;;;;5.80;5.20;;;;;;;;;;7330387;19;162704;-14
2021/10/28 20:42:02;;;;;;;7.93;5.88;;;;;;;;;;7330969;19;154321;-15
2021/10/28 20:44:33;;;;;;;6.38;5.60;;;;;;;;;;7330540;19;153651;-12
2021/10/28 20:47:05;;;;;;;7.15;5.70;;;;;;;;;;7329774;19;162052;-16
2021/10/28 20:49:37;;;;;;;6.65;5.18;;;;;;;;;;7330526;19;162374;-14
2021/10/28 20:52:09;;;;;;;6.53;5.47;;;;;;;;;;7329471;19;154025;-15
2021/10/28 20:54:42;;;;;;;5.53;4.90;;;;;;;;;;7330685;19;153472;-16
2021/10/28 20:57:14;;;;;;;8.82;5.18;;;;;;;;;;7330111;19;162084;-14
2021/10/28 20:59:46;;;;;;;6.95;5.40;;;;;;;;;;7330323;19;162402;-15
2021/10/28 21:02:17;;;;;;;6.72;5.63;;;;;;;;;;7330477;19;153974;-21
2021/10/28 21:04:49;;;;;;;7.47;5.47;;;;;;;;;;7329293;19;153636;-15
2021/10/28 21:07:21;;;;;;;6.05;4.80;;;;;;;;;;7329217;19;162050;-17
2021/10/28 21:09:55;;;;;;;6.75;5.35;;;;;;;;;;7328622;19;162438;-15
2021/10/28 21:12:26;;;;;;;6.07;5.47;;;;;;;;;;7330270;19;154163;-17
2021/10/28 21:14:59;;;;;;;6.03;4.90;;;;;;;;;;7329117;19;153650;-14
2021/10/28 21:17:30;;;;;;;7.97;5.43;;;;;;;;;;7329326;19;161855;-15
2021/10/28 21:20:01;;;;;;;6.28;5.30;;;;;;;;;;7329278;19;162360;-14
2021/10/28 21:22:33;;;;;;;6.10;5.13;;;;;;;;;;7330225;19;154300;-17
2021/10/28 21:25:08;;;;;;;5.15;4.60;;;;;;;;;;7332234;19;153768;-15
2021/10/28 21:27:39;;;;;;;5.53;4.80;;;;;;;;;;7330030;19;162114;-15
2021/10/28 21:30:14;;;;;;;5.63;5.00;;;;;;;;;;7328802;19;162622;-15
2021/10/28 21:32:46;;;;;;;5.30;4.80;;;;;;;;;;7329352;19;154091;-14
2021/10/28 21:35:17;;;;;;;5.60;5.00;;;;;;;;;;7329186;19;153519;-15
2021/10/28 21:37:48;;;;;;;6.30;4.93;;;;;;;;;;7329424;19;161829;-14
2021/10/28 21:40:22;;;;;;;6.40;4.97;;;;;;;;;;7328821;19;162344;-16
2021/10/28 21:42:54;;;;;;;6.80;5.65;;;;;;;;;;7328686;19;153957;-17
2021/10/28 21:45:27;;;;;;;5.70;5.20;;;;;;;;;;7328632;19;153728;-15
2021/10/28 21:47:59;;;;;;;5.35;4.75;;;;;;;;;;7328461;19;161852;-16
2021/10/28 21:50:30;;;;;;;5.88;5.22;;;;;;;;;;7328186;19;162397;-16
2021/10/28 21:53:08;;;;;;;5.10;4.60;;;;;;;;;;7326661;19;154367;-17
2021/10/28 21:55:53;;;;;;;4.90;4.43;;;;;;;;;;7328416;19;154031;-15
2021/10/28 21:58:34;;;;;;;5.50;5.00;;;;;;;;;;7328062;19;161817;-17
2021/10/28 22:01:13;;;;;;;4.75;4.28;;;;;;;;;;7328191;19;162528;-13
2021/10/28 22:26:14;;;;;;;3.50;3.03;;;;;;;;;;7331159;19;153981;-16
2021/10/28 22:28:48;;;;;;;3.80;3.15;;;;;;;;;;7329622;19;153600;-16
2021/10/28 22:31:19;;;;;;;3.40;3.10;;;;;;;;;;7329397;19;161870;-15
2021/10/28 22:33:51;;;;;;;3.15;2.85;;;;;;;;;;7330443;19;162928;-13
2021/10/28 22:36:24;;;;;;;3.60;3.22;;;;;;;;;;7330355;19;154034;-14
2021/10/28 22:39:02;;;;;;;4.10;3.38;;;;;;;;;;7331063;19;153740;-15
2021/10/28 22:41:34;;;;;;;3.63;3.30;;;;;;;;;;7329240;19;162216;-14
2021/10/28 22:44:08;;;;;;;3.13;2.90;;;;;;;;;;7329324;19;162697;-16
2021/10/28 22:46:39;;;;;;;3.33;3.03;;;;;;;;;;7330666;19;154620;-14
2021/10/28 22:49:11;;;;;;;3.17;2.80;;;;;;;;;;7330473;19;153614;-17
2021/10/28 22:51:42;;;;;;;3.20;3.00;;;;;;;;;;7336723;19;161827;-17
2021/10/28 22:54:14;;;;;;;3.85;2.70;;;;;;;;;;7333750;19;162238;-16
2021/10/28 22:56:45;;;;;;;3.45;3.15;;;;;;;;;;7333790;19;154416;-14
2021/10/28 22:59:19;;;;;;;3.30;3.00;;;;;;;;;;7334068;19;153482;-17
2021/10/28 23:01:57;;;;;;;3.40;3.10;;;;;;;;;;7333353;19;162051;-14
2021/10/28 23:04:46;;;;;;;3.97;3.25;;;;;;;;;;7331978;19;162399;-15
2021/10/28 23:10:22;;;;;;;2.63;2.42;;;;;;;;;;7329930;19;153543;-14
2021/10/28 23:16:11;;;;;;;3.25;2.95;;;;;;;;;;7333563;19;162645;-13
2021/10/28 23:21:26;;;;;;;2.83;2.63;;;;;;;;;;7333009;19;153749;-16
2021/10/28 23:23:57;;;;;;;2.90;2.70;;;;;;;;;;7332617;19;161839;-16
2021/10/28 23:26:28;;;;;;;3.15;2.78;;;;;;;;;;7331422;19;162621;-15
2021/10/28 23:29:00;;;;;;;2.70;2.50;;;;;;;;;;7332408;19;153963;-18
2021/10/28 23:31:34;;;;;;;2.83;2.63;;;;;;;;;;7332839;19;153542;-14
2021/10/28 23:34:05;;;;;;;2.85;2.65;;;;;;;;;;7332590;19;162001;-16
2021/10/28 23:36:37;;;;;;;2.58;2.40;;;;;;;;;;7332311;19;162483;-14
2021/10/28 23:39:09;;;;;;;2.45;2.25;;;;;;;;;;7332692;19;154156;-17
2021/10/28 23:41:40;;;;;;;2.90;2.67;;;;;;;;;;7329301;19;153668;-16
2021/10/28 23:44:12;;;;;;;3.05;2.53;;;;;;;;;;7332935;19;161852;-17
2021/10/28 23:46:46;;;;;;;2.70;2.50;;;;;;;;;;7332640;19;162364;-15
2021/10/28 23:49:17;;;;;;;2.83;2.63;;;;;;;;;;7332352;19;154148;-21
